createdAt,value
2018-03-20T00:00:58.284Z,33.62
2018-03-20T00:02:07.586Z,33.62
2018-03-20T00:03:16.817Z,33.62
2018-03-20T00:04:26.310Z,33.62
2018-03-20T00:05:35.533Z,33.53
2018-03-20T00:06:45.027Z,33.72
2018-03-20T00:07:54.780Z,33.53
2018-03-20T00:09:04.000Z,33.62
2018-03-20T00:10:13.221Z,33.53
2018-03-20T00:11:22.705Z,33.53
2018-03-20T00:12:32.465Z,33.72
2018-03-20T00:13:41.413Z,33.53
2018-03-20T00:14:51.173Z,33.72
2018-03-20T00:16:00.655Z,33.62
2018-03-20T00:17:09.880Z,33.72
2018-03-20T00:18:19.634Z,33.62
2018-03-20T00:19:29.662Z,33.72
2018-03-20T00:20:39.419Z,33.62
2018-03-20T00:21:49.188Z,33.53
2018-03-20T00:22:59.220Z,33.72
2018-03-20T00:24:08.442Z,33.62
2018-03-20T00:25:17.935Z,33.72
2018-03-20T00:26:27.694Z,33.72
2018-03-20T00:27:37.448Z,33.53
2018-03-20T00:28:47.209Z,33.53
2018-03-20T00:29:56.975Z,33.62
2018-03-20T00:31:06.743Z,33.53
2018-03-20T00:32:16.503Z,33.53
2018-03-20T00:33:26.010Z,33.62
2018-03-20T00:34:35.766Z,33.62
2018-03-20T00:35:45.526Z,33.62
2018-03-20T00:36:55.295Z,33.62
2018-03-20T00:38:04.782Z,33.53
2018-03-20T00:39:14.278Z,33.62
2018-03-20T00:40:24.304Z,33.53
2018-03-20T00:41:34.342Z,33.62
2018-03-20T00:42:43.561Z,33.62
2018-03-20T00:43:52.515Z,33.62
2018-03-20T00:45:02.002Z,33.53
2018-03-20T00:46:11.493Z,33.53
2018-03-20T00:47:21.254Z,33.53
2018-03-20T00:48:30.745Z,33.62
2018-03-20T00:49:40.235Z,33.53
2018-03-20T00:50:49.720Z,33.62
2018-03-20T00:51:59.480Z,33.53
2018-03-20T00:53:09.242Z,33.62
2018-03-20T00:54:18.457Z,33.62
2018-03-20T00:55:28.227Z,33.62
2018-03-20T00:56:37.984Z,33.53
2018-03-20T00:57:47.203Z,33.53
2018-03-20T00:58:56.963Z,33.62
2018-03-20T01:00:06.186Z,33.62
2018-03-20T01:01:15.676Z,33.53
2018-03-20T01:02:25.432Z,33.62
2018-03-20T01:03:34.924Z,33.53
2018-03-20T01:04:44.414Z,33.62
2018-03-20T01:05:53.364Z,33.72
2018-03-20T01:07:02.852Z,33.53
2018-03-20T01:08:12.707Z,33.62
2018-03-20T01:09:21.651Z,33.53
2018-03-20T01:10:31.137Z,33.62
2018-03-20T01:11:40.093Z,33.62
2018-03-20T01:12:49.046Z,33.53
2018-03-20T01:13:58.804Z,33.53
2018-03-20T01:15:08.298Z,33.62
2018-03-20T01:16:17.515Z,33.62
2018-03-20T01:17:27.300Z,33.62
2018-03-20T01:18:36.615Z,33.62
2018-03-20T01:19:45.566Z,33.44
2018-03-20T01:20:55.057Z,33.62
2018-03-20T01:22:04.278Z,33.62
2018-03-20T01:23:14.045Z,33.62
2018-03-20T01:24:23.803Z,33.72
2018-03-20T01:25:33.298Z,33.53
2018-03-20T01:26:43.366Z,33.53
2018-03-20T01:27:52.872Z,33.62
2018-03-20T01:29:02.367Z,33.53
2018-03-20T01:30:12.400Z,33.53
2018-03-20T01:31:21.621Z,33.72
2018-03-20T01:32:30.305Z,33.62
2018-03-20T01:33:40.060Z,33.62
2018-03-20T01:34:49.815Z,33.53
2018-03-20T01:35:58.769Z,33.62
2018-03-20T01:37:08.254Z,33.53
2018-03-20T01:38:17.743Z,33.62
2018-03-20T01:39:27.543Z,33.62
2018-03-20T01:40:37.032Z,33.72
2018-03-20T01:41:46.793Z,33.62
2018-03-20T01:42:56.013Z,33.72
2018-03-20T01:44:05.513Z,33.62
2018-03-20T01:45:15.002Z,33.72
2018-03-20T01:46:24.772Z,33.72
2018-03-20T01:47:34.527Z,33.62
2018-03-20T01:48:43.747Z,33.72
2018-03-20T01:49:53.509Z,33.72
2018-03-20T01:51:02.731Z,33.72
2018-03-20T01:52:12.482Z,33.72
2018-03-20T01:53:22.238Z,33.82
2018-03-20T01:54:31.191Z,33.82
2018-03-20T01:55:40.411Z,33.8
2018-03-20T01:56:49.362Z,33.82
2018-03-20T01:57:58.581Z,33.82
2018-03-20T01:59:08.072Z,33.8
2018-03-20T02:00:17.840Z,33.82
2018-03-20T02:01:27.336Z,33.82
2018-03-20T02:02:37.094Z,33.82
2018-03-20T02:03:46.312Z,33.91
2018-03-20T02:04:56.080Z,33.82
2018-03-20T02:06:05.565Z,33.82
2018-03-20T02:07:14.801Z,33.82
2018-03-20T02:08:24.562Z,33.8
2018-03-20T02:09:34.320Z,33.82
2018-03-20T02:10:43.538Z,33.9
2018-03-20T02:11:53.293Z,33.9
2018-03-20T02:13:03.052Z,33.8
2018-03-20T02:14:12.835Z,33.9
2018-03-20T02:15:22.461Z,33.9
2018-03-20T02:16:31.966Z,33.82
2018-03-20T02:17:41.185Z,33.82
2018-03-20T02:18:50.675Z,33.91
2018-03-20T02:20:00.166Z,33.91
2018-03-20T02:21:09.928Z,33.9
2018-03-20T02:22:19.433Z,33.91
2018-03-20T02:23:28.919Z,33.8
2018-03-20T02:24:38.410Z,33.82
2018-03-20T02:25:47.898Z,33.9
2018-03-20T02:26:57.120Z,33.82
2018-03-20T02:28:06.346Z,33.82
2018-03-20T02:29:15.564Z,33.8
2018-03-20T02:30:24.798Z,33.8
2018-03-20T02:31:34.020Z,33.82
2018-03-20T02:32:43.531Z,33.82
2018-03-20T02:33:53.354Z,33.8
2018-03-20T02:35:02.865Z,33.82
2018-03-20T02:36:12.359Z,33.9
2018-03-20T02:37:21.858Z,33.8
2018-03-20T02:38:31.903Z,33.82
2018-03-20T02:39:41.679Z,33.82
2018-03-20T02:40:51.448Z,33.91
2018-03-20T02:42:00.941Z,33.82
2018-03-20T02:43:10.166Z,33.82
2018-03-20T02:44:19.397Z,33.9
2018-03-20T02:45:28.911Z,33.82
2018-03-20T02:46:38.957Z,33.8
2018-03-20T02:47:48.463Z,33.91
2018-03-20T02:48:57.958Z,33.8
2018-03-20T02:50:07.184Z,33.91
2018-03-20T02:51:16.677Z,33.9
2018-03-20T02:52:26.729Z,33.9
2018-03-20T02:53:35.959Z,33.8
2018-03-20T02:54:45.992Z,33.8
2018-03-20T02:55:55.496Z,33.9
2018-03-20T02:57:05.260Z,33.9
2018-03-20T02:58:15.296Z,33.9
2018-03-20T02:59:24.869Z,33.8
2018-03-20T03:00:34.633Z,33.8
2018-03-20T03:01:43.599Z,33.7
2018-03-20T03:02:53.372Z,33.8
2018-03-20T03:04:03.414Z,33.8
2018-03-20T03:05:13.181Z,33.9
2018-03-20T03:06:22.461Z,33.9
2018-03-20T03:07:31.681Z,33.82
2018-03-20T03:08:41.460Z,33.8
2018-03-20T03:09:51.491Z,33.8
2018-03-20T03:11:00.978Z,33.9
2018-03-20T03:12:10.746Z,33.8
2018-03-20T03:13:20.244Z,33.8
2018-03-20T03:14:29.468Z,33.9
2018-03-20T03:15:38.707Z,33.9
2018-03-20T03:16:48.194Z,33.8
2018-03-20T03:17:57.950Z,33.8
2018-03-20T03:19:07.440Z,33.9
2018-03-20T03:20:16.665Z,33.9
2018-03-20T03:21:26.160Z,33.9
2018-03-20T03:22:35.648Z,33.7
2018-03-20T03:23:44.335Z,33.9
2018-03-20T03:24:54.363Z,33.9
2018-03-20T03:26:03.591Z,33.42
2018-03-20T03:27:13.077Z,33.7
2018-03-20T03:28:22.847Z,33.7
2018-03-20T03:29:32.680Z,33.7
2018-03-20T03:30:42.449Z,33.42
2018-03-20T03:31:52.499Z,33.61
2018-03-20T03:33:01.722Z,33.8
2018-03-20T03:34:11.215Z,33.51
2018-03-20T03:35:21.248Z,33.51
2018-03-20T03:36:30.470Z,33.32
2018-03-20T03:37:39.691Z,33.61
2018-03-20T03:38:49.188Z,33.32
2018-03-20T03:39:58.410Z,33.42
2018-03-20T03:41:07.630Z,33.32
2018-03-20T03:42:16.854Z,33.32
2018-03-20T03:43:26.340Z,33.32
2018-03-20T03:44:35.560Z,33.13
2018-03-20T03:45:45.591Z,33.32
2018-03-20T03:46:55.083Z,33.32
2018-03-20T03:48:04.576Z,33.32
2018-03-20T03:49:14.608Z,33.42
2018-03-20T03:50:24.105Z,33.23
2018-03-20T03:51:33.329Z,33.32
2018-03-20T03:52:42.825Z,32.93
2018-03-20T03:53:52.856Z,33.23
2018-03-20T03:55:02.339Z,33.23
2018-03-20T03:56:11.836Z,33.23
2018-03-20T03:57:21.323Z,33.23
2018-03-20T03:58:31.088Z,33.23
2018-03-20T03:59:40.586Z,33.42
2018-03-20T04:00:50.356Z,32.93
2018-03-20T04:01:59.855Z,33.32
2018-03-20T04:03:09.342Z,33.42
2018-03-20T04:04:18.561Z,33.23
2018-03-20T04:05:27.775Z,33.03
2018-03-20T04:06:37.321Z,33.03
2018-03-20T04:07:47.091Z,33.13
2018-03-20T04:08:56.580Z,33.13
2018-03-20T04:10:06.066Z,33.03
2018-03-20T04:11:15.563Z,33.42
2018-03-20T04:12:24.786Z,33.03
2018-03-20T04:13:34.542Z,33.13
2018-03-20T04:14:44.306Z,33.13
2018-03-20T04:15:53.259Z,33.13
2018-03-20T04:17:02.749Z,33.13
2018-03-20T04:18:11.986Z,33.23
2018-03-20T04:19:22.033Z,33.03
2018-03-20T04:20:31.249Z,33.13
2018-03-20T04:21:40.739Z,33.32
2018-03-20T04:22:50.232Z,33.03
2018-03-20T04:23:59.992Z,32.84
2018-03-20T04:25:09.498Z,32.75
2018-03-20T04:26:18.722Z,33.23
2018-03-20T04:27:28.215Z,33.13
2018-03-20T04:28:37.987Z,33.23
2018-03-20T04:29:48.013Z,33.03
2018-03-20T04:30:57.774Z,33.32
2018-03-20T04:32:07.532Z,33.42
2018-03-20T04:33:17.022Z,33.13
2018-03-20T04:34:26.244Z,33.13
2018-03-20T04:35:35.730Z,33.23
2018-03-20T04:36:45.495Z,33.32
2018-03-20T04:37:55.280Z,33.42
2018-03-20T04:39:04.511Z,32.84
2018-03-20T04:40:14.283Z,32.84
2018-03-20T04:41:23.778Z,32.84
2018-03-20T04:42:33.540Z,33.32
2018-03-20T04:43:43.037Z,32.84
2018-03-20T04:44:53.057Z,32.75
2018-03-20T04:46:02.819Z,32.84
2018-03-20T04:47:12.042Z,32.75
2018-03-20T04:48:21.262Z,33.03
2018-03-20T04:49:30.756Z,32.75
2018-03-20T04:50:40.512Z,33.23
2018-03-20T04:51:50.009Z,32.84
2018-03-20T04:52:59.500Z,32.75
2018-03-20T04:54:08.991Z,32.65
2018-03-20T04:55:18.480Z,32.93
2018-03-20T04:56:28.241Z,32.93
2018-03-20T04:57:38.004Z,33.23
2018-03-20T04:58:47.499Z,32.84
2018-03-20T04:59:56.987Z,32.65
2018-03-20T05:01:06.479Z,32.75
2018-03-20T05:02:15.700Z,32.84
2018-03-20T05:03:24.916Z,32.93
2018-03-20T05:04:34.403Z,33.13
2018-03-20T05:05:43.358Z,32.93
2018-03-20T05:06:52.587Z,33.13
2018-03-20T05:08:02.344Z,33.13
2018-03-20T05:09:11.838Z,33.03
2018-03-20T05:10:21.061Z,33.03
2018-03-20T05:11:30.819Z,33.13
2018-03-20T05:12:40.573Z,32.93
2018-03-20T05:13:50.062Z,33.03
2018-03-20T05:14:59.286Z,32.75
2018-03-20T05:16:08.512Z,32.84
2018-03-20T05:17:18.002Z,33.13
2018-03-20T05:18:27.221Z,32.93
2018-03-20T05:19:36.717Z,32.65
2018-03-20T05:20:45.940Z,32.75
2018-03-20T05:21:55.963Z,32.75
2018-03-20T05:23:05.715Z,32.84
2018-03-20T05:24:14.945Z,33.32
2018-03-20T05:25:24.166Z,33.42
2018-03-20T05:26:33.701Z,32.84
2018-03-20T05:27:42.922Z,32.84
2018-03-20T05:28:52.707Z,33.32
2018-03-20T05:30:02.541Z,33.42
2018-03-20T05:31:12.304Z,32.75
2018-03-20T05:32:22.058Z,32.75
2018-03-20T05:33:31.546Z,32.65
2018-03-20T05:34:41.305Z,32.75
2018-03-20T05:35:51.064Z,32.75
2018-03-20T05:37:00.018Z,32.65
2018-03-20T05:38:09.511Z,32.75
2018-03-20T05:39:19.539Z,32.93
2018-03-20T05:40:29.030Z,32.84
2018-03-20T05:41:38.522Z,33.03
2018-03-20T05:42:48.557Z,33.03
2018-03-20T05:43:58.312Z,32.93
2018-03-20T05:45:07.800Z,32.93
2018-03-20T05:46:16.752Z,32.93
2018-03-20T05:47:26.243Z,32.93
2018-03-20T05:48:35.735Z,32.93
2018-03-20T05:49:44.959Z,32.93
2018-03-20T05:50:54.717Z,32.93
2018-03-20T05:52:04.210Z,32.65
2018-03-20T05:53:13.693Z,32.65
2018-03-20T05:54:22.912Z,32.93
2018-03-20T05:55:32.674Z,32.84
2018-03-20T05:56:41.629Z,33.03
2018-03-20T05:57:51.122Z,32.93
2018-03-20T05:59:00.879Z,32.84
2018-03-20T06:00:10.379Z,32.93
2018-03-20T06:01:20.417Z,32.93
2018-03-20T06:02:29.913Z,33.13
2018-03-20T06:03:39.407Z,32.84
2018-03-20T06:04:48.628Z,33.13
2018-03-20T06:05:58.115Z,33.03
2018-03-20T06:07:07.617Z,32.84
2018-03-20T06:08:17.376Z,33.13
2018-03-20T06:09:27.138Z,32.93
2018-03-20T06:10:36.362Z,33.13
2018-03-20T06:11:46.116Z,32.84
2018-03-20T06:12:55.616Z,33.13
2018-03-20T06:14:05.366Z,32.84
2018-03-20T06:15:14.593Z,32.93
2018-03-20T06:16:23.818Z,33.03
2018-03-20T06:17:33.311Z,32.84
2018-03-20T06:18:42.543Z,32.93
2018-03-20T06:19:51.544Z,32.84
2018-03-20T06:21:01.308Z,33.03
2018-03-20T06:22:10.792Z,33.13
2018-03-20T06:23:20.551Z,33.23
2018-03-20T06:24:30.310Z,33.03
2018-03-20T06:25:40.071Z,33.03
2018-03-20T06:26:49.566Z,33.23
2018-03-20T06:27:59.320Z,33.13
2018-03-20T06:29:09.077Z,32.93
2018-03-20T06:30:18.837Z,32.84
2018-03-20T06:31:28.333Z,32.75
2018-03-20T06:32:37.831Z,33.13
2018-03-20T06:33:47.323Z,33.13
2018-03-20T06:34:57.075Z,33.03
2018-03-20T06:36:06.561Z,33.13
2018-03-20T06:37:15.787Z,33.03
2018-03-20T06:38:25.272Z,33.13
2018-03-20T06:39:35.046Z,32.84
2018-03-20T06:40:44.264Z,32.93
2018-03-20T06:41:54.074Z,32.84
2018-03-20T06:43:03.841Z,33.13
2018-03-20T06:44:13.334Z,32.93
2018-03-20T06:45:22.562Z,33.03
2018-03-20T06:46:32.586Z,33.23
2018-03-20T06:47:42.077Z,32.93
2018-03-20T06:48:51.835Z,32.65
2018-03-20T06:50:01.589Z,32.93
2018-03-20T06:51:11.076Z,32.93
2018-03-20T06:52:21.134Z,32.84
2018-03-20T06:53:30.068Z,32.93
2018-03-20T06:54:39.024Z,32.93
2018-03-20T06:55:48.244Z,32.93
2018-03-20T06:56:57.739Z,33.03
2018-03-20T06:58:07.228Z,32.84
2018-03-20T06:59:16.713Z,32.84
2018-03-20T07:00:26.208Z,32.93
2018-03-20T07:01:35.968Z,32.93
2018-03-20T07:02:45.466Z,32.93
2018-03-20T07:03:54.688Z,32.93
2018-03-20T07:05:04.192Z,32.65
2018-03-20T07:06:13.420Z,32.65
2018-03-20T07:07:23.386Z,33.03
2018-03-20T07:08:32.890Z,33.03
2018-03-20T07:09:42.381Z,33.03
2018-03-20T07:10:51.608Z,32.65
2018-03-20T07:12:01.372Z,32.65
2018-03-20T07:13:11.134Z,32.65
2018-03-20T07:14:20.901Z,32.75
2018-03-20T07:15:30.666Z,33.03
2018-03-20T07:16:39.617Z,32.75
2018-03-20T07:17:49.107Z,32.93
2018-03-20T07:18:58.873Z,32.65
2018-03-20T07:20:08.095Z,32.93
2018-03-20T07:21:17.586Z,32.65
2018-03-20T07:22:27.118Z,32.55
2018-03-20T07:23:36.613Z,32.93
2018-03-20T07:24:46.636Z,32.93
2018-03-20T07:25:56.671Z,32.55
2018-03-20T07:27:06.028Z,32.84
2018-03-20T07:28:15.608Z,32.75
2018-03-20T07:29:25.352Z,32.46
2018-03-20T07:30:35.123Z,32.46
2018-03-20T07:31:44.618Z,32.26
2018-03-20T07:32:53.841Z,32.55
2018-03-20T07:34:03.613Z,32.46
2018-03-20T07:35:13.104Z,32.65
2018-03-20T07:36:22.870Z,32.75
2018-03-20T07:37:32.629Z,32.55
2018-03-20T07:38:42.398Z,32.36
2018-03-20T07:39:51.906Z,32.55
2018-03-20T07:41:01.769Z,32.75
2018-03-20T07:42:11.261Z,32.84
2018-03-20T07:43:20.763Z,32.84
2018-03-20T07:44:30.248Z,32.84
2018-03-20T07:45:39.469Z,32.55
2018-03-20T07:46:48.956Z,32.55
2018-03-20T07:47:58.462Z,32.75
2018-03-20T07:49:07.694Z,33.03
2018-03-20T07:50:16.915Z,33.23
2018-03-20T07:51:26.670Z,33.23
2018-03-20T07:52:35.889Z,32.75
2018-03-20T07:53:45.109Z,32.93
2018-03-20T07:54:54.868Z,33.8
2018-03-20T07:56:04.362Z,33.8
2018-03-20T07:57:14.009Z,33.9
2018-03-20T07:58:24.392Z,34.28
2018-03-20T07:59:33.621Z,34.38
2018-03-20T08:00:43.117Z,34.47
2018-03-20T08:01:52.349Z,34.76
2018-03-20T08:03:02.112Z,35.34
2018-03-20T08:04:11.874Z,35.43
2018-03-20T08:05:21.107Z,35.53
2018-03-20T08:06:30.340Z,35.53
2018-03-20T08:07:40.105Z,35.72
2018-03-20T08:08:49.865Z,35.53
2018-03-20T08:09:59.893Z,35.05
2018-03-20T08:11:08.850Z,34.95
2018-03-20T08:12:18.338Z,34.38
2018-03-20T08:13:27.831Z,34.57
2018-03-20T08:14:37.323Z,34.47
2018-03-20T08:15:47.088Z,34.19
2018-03-20T08:16:56.581Z,34.38
2018-03-20T08:18:06.070Z,34.28
2018-03-20T08:19:15.828Z,34.47
2018-03-20T08:20:25.103Z,34.67
2018-03-20T08:21:34.329Z,34.67
2018-03-20T08:22:43.828Z,34.76
2018-03-20T08:23:53.589Z,34.38
2018-03-20T08:25:03.080Z,34.38
2018-03-20T08:26:12.620Z,34.47
2018-03-20T08:27:22.115Z,34.38
2018-03-20T08:28:31.340Z,34.57
2018-03-20T08:29:40.567Z,34.67
2018-03-20T08:30:49.524Z,34.67
2018-03-20T08:31:59.028Z,34.28
2018-03-20T08:33:08.239Z,34.28
2018-03-20T08:34:17.733Z,33.99
2018-03-20T08:35:27.243Z,34.19
2018-03-20T08:36:36.760Z,33.99
2018-03-20T08:37:46.065Z,33.99
2018-03-20T08:38:55.827Z,34.19
2018-03-20T08:40:05.316Z,34.28
2018-03-20T08:41:14.540Z,34.38
2018-03-20T08:42:23.496Z,34.57
2018-03-20T08:43:32.993Z,35.34
2018-03-20T08:44:42.758Z,35.34
2018-03-20T08:45:51.981Z,35.72
2018-03-20T08:47:01.474Z,35.91
2018-03-20T08:48:10.971Z,35.82
2018-03-20T08:49:20.195Z,36.4
2018-03-20T08:50:29.692Z,36.49
2018-03-20T08:51:39.180Z,36.58
2018-03-20T08:52:48.956Z,36.4
2018-03-20T08:53:58.442Z,36.4
2018-03-20T08:55:07.947Z,36.88
2018-03-20T08:56:17.445Z,36.88
2018-03-20T08:57:26.933Z,36.4
2018-03-20T08:58:36.442Z,36.49
2018-03-20T08:59:45.938Z,36.3
2018-03-20T09:00:55.160Z,36.2
2018-03-20T09:02:04.382Z,36.49
2018-03-20T09:03:13.884Z,36.68
2018-03-20T09:04:23.646Z,36.58
2018-03-20T09:05:33.417Z,36.4
2018-03-20T09:06:42.648Z,36.58
2018-03-20T09:07:51.603Z,36.2
2018-03-20T09:09:01.098Z,36.01
2018-03-20T09:10:10.866Z,35.63
2018-03-20T09:11:20.088Z,35.53
2018-03-20T09:12:29.652Z,35.24
2018-03-20T09:13:39.492Z,35.34
2018-03-20T09:14:49.260Z,35.14
2018-03-20T09:15:58.488Z,34.57
2018-03-20T09:17:07.985Z,34.09
2018-03-20T09:18:17.744Z,33.31
2018-03-20T09:19:26.964Z,33.11
2018-03-20T09:20:36.203Z,33.11
